createdAt,value
2022-12-22T00:11:03.360Z,36.7
2022-12-22T00:26:46.617Z,36.5
2022-12-22T00:42:29.838Z,37.9
2022-12-22T00:58:12.947Z,41
2022-12-22T01:13:56.028Z,42.9
2022-12-22T01:29:39.111Z,39
2022-12-22T01:45:21.949Z,38.9
2022-12-22T02:01:04.575Z,41.1
2022-12-22T02:32:30.879Z,40.5
2022-12-22T02:48:13.275Z,40.9
2022-12-22T03:03:56.252Z,46.1
2022-12-22T03:19:39.336Z,46.2
2022-12-22T03:35:22.538Z,41.5
2022-12-22T03:51:05.121Z,51.6
2022-12-22T04:06:47.680Z,40.4
2022-12-22T04:22:30.223Z,48.6
2022-12-22T04:38:13.357Z,47.6
2022-12-22T04:53:56.464Z,46.4
2022-12-22T05:09:39.073Z,51.2
2022-12-22T05:25:21.679Z,71.8
2022-12-22T05:41:04.309Z,74.1
2022-12-22T05:56:46.683Z,66.9
2022-12-22T06:12:29.250Z,82.3
2022-12-22T06:28:12.292Z,79.5
2022-12-22T06:43:55.441Z,77.3
2022-12-22T06:59:38.751Z,86.3
2022-12-22T07:15:21.831Z,81.1
2022-12-22T07:31:04.431Z,79.9
2022-12-22T07:46:46.789Z,74.6
2022-12-22T08:02:29.784Z,73.1
2022-12-22T08:18:12.836Z,72.4
2022-12-22T08:33:55.182Z,62.7
2022-12-22T08:49:37.591Z,59
2022-12-22T09:05:20.224Z,54.4
2022-12-22T09:21:02.621Z,53.6
2022-12-22T09:36:45.290Z,54
2022-12-22T09:52:28.161Z,50.4
2022-12-22T10:08:10.660Z,52.6
2022-12-22T10:23:52.988Z,46.4
2022-12-22T10:39:35.382Z,44
2022-12-22T10:40:22.613Z,48.1
2022-12-22T10:56:05.529Z,49
2022-12-22T11:11:48.355Z,41.7
2022-12-22T11:27:31.439Z,41.7
2022-12-22T11:43:13.820Z,40.3
2022-12-22T11:58:56.820Z,36.5
2022-12-22T12:14:39.863Z,34.5
2022-12-22T12:30:22.716Z,31.3
2022-12-22T12:46:05.712Z,30.4
2022-12-22T13:01:48.590Z,28.6
2022-12-22T13:17:31.390Z,25.9
2022-12-22T13:33:14.706Z,30.9
2022-12-22T13:48:57.819Z,31
2022-12-22T14:04:40.588Z,133.8
2022-12-22T14:20:23.270Z,104.9
2022-12-22T14:36:05.942Z,110.4
2022-12-22T14:51:48.170Z,39.4
2022-12-22T15:07:30.837Z,29
2022-12-22T15:23:13.392Z,21.6
2022-12-22T15:38:56.488Z,19.79
2022-12-22T15:54:39.682Z,21
2022-12-22T16:10:22.522Z,20.29
2022-12-22T16:26:05.526Z,16.5
2022-12-22T16:41:47.918Z,20.7
2022-12-22T16:57:30.374Z,23.4
2022-12-22T17:13:12.595Z,26.2
2022-12-22T17:28:54.900Z,30.8
2022-12-22T17:44:37.142Z,38.9
2022-12-22T18:00:20.022Z,43.4
2022-12-22T18:16:02.368Z,44.1
2022-12-22T18:31:44.838Z,44.3
2022-12-22T18:47:27.141Z,41.3
2022-12-22T19:03:09.848Z,33
2022-12-22T19:18:52.396Z,47.6
2022-12-22T19:34:35.467Z,47.7
2022-12-22T19:50:18.174Z,39.3
2022-12-22T20:06:00.580Z,42.7
2022-12-22T20:21:43.421Z,53.7
2022-12-22T20:37:25.936Z,51.4
2022-12-22T20:53:08.167Z,54.9
2022-12-22T21:08:50.821Z,52.9
2022-12-22T21:24:33.364Z,56.5
2022-12-22T21:40:15.759Z,54.8
2022-12-22T21:55:58.454Z,62.4
2022-12-22T22:11:41.254Z,57.8
2022-12-22T22:27:23.696Z,59.1
2022-12-22T22:43:06.219Z,51.8
2022-12-22T22:58:48.788Z,51.4
2022-12-22T23:14:31.810Z,55.7
2022-12-22T23:30:14.619Z,51.6
2022-12-22T23:45:57.027Z,52.4
